createdAt,value
2017-11-04T00:00:02.596Z,99.99
2017-11-04T00:01:02.538Z,99.99
2017-11-04T00:02:02.466Z,99.99
2017-11-04T00:03:02.406Z,99.99
2017-11-04T00:04:02.343Z,99.99
2017-11-04T00:05:02.288Z,99.99
2017-11-04T00:06:02.215Z,99.99
2017-11-04T00:07:02.157Z,99.99
2017-11-04T00:08:02.099Z,99.99
2017-11-04T00:09:02.039Z,99.99
2017-11-04T00:10:01.983Z,99.99
2017-11-04T00:11:01.927Z,99.99
2017-11-04T00:12:01.873Z,99.99
2017-11-04T00:13:01.834Z,99.99
2017-11-04T00:14:01.731Z,99.99
2017-11-04T00:15:01.663Z,99.99
2017-11-04T00:16:01.604Z,99.99
2017-11-04T00:17:01.546Z,99.99
2017-11-04T00:18:01.488Z,99.99
2017-11-04T00:19:01.427Z,99.99
2017-11-04T00:20:01.370Z,99.99
2017-11-04T00:21:01.326Z,99.99
2017-11-04T00:22:01.240Z,99.99
2017-11-04T00:23:01.179Z,99.99
2017-11-04T00:24:01.117Z,99.99
2017-11-04T00:25:01.056Z,99.99
2017-11-04T00:26:00.990Z,99.99
2017-11-04T00:27:00.930Z,99.99
2017-11-04T00:28:00.872Z,99.99
2017-11-04T00:29:00.824Z,99.99
2017-11-04T00:30:00.758Z,99.99
2017-11-04T00:31:00.705Z,99.99
2017-11-04T00:32:00.633Z,99.99
2017-11-04T00:33:00.563Z,99.99
2017-11-04T00:34:00.514Z,99.99
2017-11-04T00:35:00.436Z,99.99
2017-11-04T00:36:00.385Z,99.99
2017-11-04T00:37:00.353Z,99.99
2017-11-04T00:38:00.258Z,99.99
2017-11-04T00:39:00.208Z,99.99
2017-11-04T00:40:00.136Z,99.99
2017-11-04T00:41:00.093Z,99.99
2017-11-04T00:42:00.014Z,99.99
2017-11-04T00:42:59.954Z,99.99
2017-11-04T00:43:59.883Z,99.99
2017-11-04T00:44:59.832Z,99.99
2017-11-04T00:45:59.764Z,99.99
2017-11-04T00:46:59.706Z,99.99
2017-11-04T00:47:59.651Z,99.99
2017-11-04T00:48:59.596Z,99.99
2017-11-04T00:49:59.521Z,99.99
2017-11-04T00:50:59.459Z,99.99
2017-11-04T00:51:59.410Z,99.99
2017-11-04T00:52:59.340Z,99.99
2017-11-04T00:53:59.269Z,99.99
2017-11-04T00:54:59.213Z,99.99
2017-11-04T00:55:59.150Z,99.99
2017-11-04T00:56:59.092Z,99.99
2017-11-04T00:57:59.034Z,99.99
2017-11-04T00:58:58.979Z,99.99
2017-11-04T00:59:58.901Z,99.99
2017-11-04T01:00:58.847Z,99.99
2017-11-04T01:01:58.782Z,99.99
2017-11-04T01:02:58.726Z,99.99
2017-11-04T01:03:58.655Z,99.99
2017-11-04T01:04:58.609Z,99.99
2017-11-04T01:05:58.537Z,99.99
2017-11-04T01:06:58.479Z,99.99
2017-11-04T01:07:58.422Z,99.99
2017-11-04T01:08:58.354Z,99.99
2017-11-04T01:09:58.289Z,99.99
2017-11-04T01:10:58.230Z,99.99
2017-11-04T01:11:58.172Z,99.99
2017-11-04T01:12:58.112Z,99.99
2017-11-04T01:13:58.039Z,99.99
2017-11-04T01:14:57.980Z,99.99
2017-11-04T01:15:57.922Z,99.99
2017-11-04T01:16:57.865Z,99.99
2017-11-04T01:17:57.809Z,99.99
2017-11-04T01:18:57.735Z,99.99
2017-11-04T01:19:57.673Z,99.99
2017-11-04T01:20:57.607Z,99.99
2017-11-04T01:21:57.545Z,99.99
2017-11-04T01:22:57.483Z,99.99
2017-11-04T01:23:57.433Z,99.99
2017-11-04T01:24:57.365Z,99.99
2017-11-04T01:25:57.315Z,99.99
2017-11-04T01:26:57.254Z,99.99
2017-11-04T01:27:57.197Z,99.99
2017-11-04T01:28:57.120Z,99.99
2017-11-04T01:29:57.056Z,99.99
2017-11-04T01:30:56.989Z,99.99
2017-11-04T01:31:56.932Z,99.99
2017-11-04T01:32:56.869Z,99.99
2017-11-04T01:33:56.810Z,99.99
2017-11-04T01:34:56.754Z,99.99
2017-11-04T01:35:56.696Z,99.99
2017-11-04T01:36:56.641Z,99.99
2017-11-04T01:37:56.563Z,99.99
2017-11-04T01:38:56.502Z,99.99
2017-11-04T01:39:56.456Z,99.99
2017-11-04T01:40:56.372Z,99.99
2017-11-04T01:41:56.313Z,99.99
2017-11-04T01:42:56.254Z,99.99
2017-11-04T01:43:56.200Z,99.99
2017-11-04T01:44:56.143Z,99.99
2017-11-04T01:45:56.084Z,99.99
2017-11-04T01:46:56.007Z,99.99
2017-11-04T01:47:55.939Z,99.99
2017-11-04T01:48:55.882Z,99.99
2017-11-04T01:49:55.815Z,99.99
2017-11-04T01:50:55.756Z,99.99
2017-11-04T01:51:55.694Z,99.99
2017-11-04T01:52:55.637Z,99.99
2017-11-04T01:53:55.571Z,99.99
2017-11-04T01:54:55.527Z,99.99
2017-11-04T01:55:55.447Z,99.99
2017-11-04T01:56:55.390Z,99.99
2017-11-04T01:57:55.319Z,99.99
2017-11-04T01:58:55.257Z,99.99
2017-11-04T01:59:55.199Z,99.99
2017-11-04T02:00:55.139Z,99.99
2017-11-04T02:01:55.081Z,99.99
2017-11-04T02:02:55.024Z,99.99
2017-11-04T02:03:54.969Z,99.99
2017-11-04T02:04:54.917Z,99.99
2017-11-04T02:05:54.836Z,99.99
2017-11-04T02:06:54.762Z,99.99
2017-11-04T02:07:54.786Z,99.99
2017-11-04T02:08:54.640Z,99.99
2017-11-04T02:09:54.593Z,99.99
2017-11-04T02:10:54.523Z,99.99
2017-11-04T02:11:54.467Z,99.99
2017-11-04T02:12:54.413Z,99.99
2017-11-04T02:13:54.336Z,99.99
2017-11-04T02:14:54.273Z,99.99
2017-11-04T02:15:54.207Z,99.99
2017-11-04T02:16:54.156Z,99.99
2017-11-04T02:17:54.083Z,99.99
2017-11-04T02:18:54.022Z,99.99
2017-11-04T02:19:53.966Z,99.99
2017-11-04T02:20:53.910Z,99.99
2017-11-04T02:21:53.856Z,99.99
2017-11-04T02:22:53.778Z,99.99
2017-11-04T02:23:53.715Z,99.99
2017-11-04T02:24:53.646Z,99.99
2017-11-04T02:25:53.586Z,99.99
2017-11-04T02:26:53.527Z,99.99
2017-11-04T02:27:53.469Z,99.99
2017-11-04T02:28:53.409Z,99.99
2017-11-04T02:29:53.356Z,99.99
2017-11-04T02:30:53.298Z,99.99
2017-11-04T02:31:53.228Z,99.99
2017-11-04T02:32:53.156Z,99.99
2017-11-04T02:33:53.090Z,99.99
2017-11-04T02:34:53.049Z,99.99
2017-11-04T02:35:52.970Z,99.99
2017-11-04T02:36:52.910Z,99.99
2017-11-04T02:37:52.853Z,99.99
2017-11-04T02:38:52.815Z,99.99
2017-11-04T02:39:52.741Z,99.99
2017-11-04T02:40:52.795Z,99.99
2017-11-04T02:41:52.597Z,99.99
2017-11-04T02:42:52.530Z,99.99
2017-11-04T02:43:52.491Z,99.99
2017-11-04T02:44:52.412Z,99.99
2017-11-04T02:45:52.350Z,99.99
2017-11-04T02:46:52.297Z,99.99
2017-11-04T02:47:52.239Z,99.99
2017-11-04T02:48:52.228Z,99.99
2017-11-04T02:49:52.105Z,99.99
2017-11-04T02:50:52.042Z,99.99
2017-11-04T02:51:51.994Z,99.99
2017-11-04T02:52:51.914Z,99.99
2017-11-04T02:53:51.852Z,99.99
2017-11-04T02:54:51.794Z,99.99
2017-11-04T02:55:51.736Z,99.99
2017-11-04T02:56:51.682Z,99.99
2017-11-04T02:57:51.605Z,99.99
2017-11-04T02:58:51.546Z,99.99
2017-11-04T02:59:51.481Z,99.99
2017-11-04T03:00:51.415Z,99.99
2017-11-04T03:01:51.354Z,99.99
2017-11-04T03:02:51.294Z,99.99
2017-11-04T03:03:51.235Z,99.99
2017-11-04T03:04:51.179Z,99.99
2017-11-04T03:05:51.124Z,99.99
2017-11-04T03:06:51.047Z,99.99
2017-11-04T03:07:50.985Z,99.99
2017-11-04T03:08:50.931Z,99.99
2017-11-04T03:09:50.857Z,99.99
2017-11-04T03:10:50.798Z,99.99
2017-11-04T03:11:50.743Z,99.99
2017-11-04T03:12:50.678Z,99.99
2017-11-04T03:13:50.622Z,99.99
2017-11-04T03:14:50.568Z,99.99
2017-11-04T03:15:50.489Z,99.99
2017-11-04T03:16:50.428Z,99.99
2017-11-04T03:17:50.363Z,99.99
2017-11-04T03:18:50.298Z,99.99
2017-11-04T03:19:50.239Z,99.99
2017-11-04T03:20:50.179Z,99.99
2017-11-04T03:21:50.253Z,99.99
2017-11-04T03:22:50.077Z,99.99
2017-11-04T03:23:50.010Z,99.99
2017-11-04T03:24:49.933Z,99.99
2017-11-04T03:25:49.883Z,99.99
2017-11-04T03:26:49.803Z,99.99
2017-11-04T03:27:49.740Z,99.99
2017-11-04T03:28:49.681Z,99.99
2017-11-04T03:29:49.622Z,99.99
2017-11-04T03:30:49.564Z,99.99
2017-11-04T03:31:49.508Z,99.99
2017-11-04T03:32:49.453Z,99.99
2017-11-04T03:33:49.374Z,99.99
2017-11-04T03:34:49.311Z,99.99
2017-11-04T03:35:49.249Z,99.99
2017-11-04T03:36:49.195Z,99.99
2017-11-04T03:37:49.123Z,99.99
2017-11-04T03:38:49.064Z,99.99
2017-11-04T03:39:49.006Z,99.99
2017-11-04T03:40:48.951Z,99.99
2017-11-04T03:41:48.888Z,99.99
2017-11-04T03:42:48.815Z,99.99
2017-11-04T03:43:48.754Z,99.99
2017-11-04T03:44:48.684Z,99.99
2017-11-04T03:45:48.624Z,99.99
2017-11-04T03:46:48.567Z,99.99
2017-11-04T03:47:48.505Z,99.99
2017-11-04T03:48:48.469Z,99.99
2017-11-04T03:49:48.393Z,99.99
2017-11-04T03:50:48.318Z,99.99
2017-11-04T03:51:48.257Z,99.99
2017-11-04T03:52:48.192Z,99.99
2017-11-04T03:53:48.130Z,99.99
2017-11-04T03:54:48.067Z,99.99
2017-11-04T03:55:48.011Z,99.99
2017-11-04T03:56:47.945Z,99.99
2017-11-04T03:57:47.891Z,99.99
2017-11-04T03:58:47.835Z,99.99
2017-11-04T03:59:47.762Z,99.99
2017-11-04T04:00:47.698Z,99.99
2017-11-04T04:01:47.638Z,99.99
2017-11-04T04:02:47.570Z,99.99
2017-11-04T04:03:47.510Z,99.99
2017-11-04T04:04:47.449Z,99.99
2017-11-04T04:05:47.405Z,99.99
2017-11-04T04:06:47.320Z,99.99
2017-11-04T04:07:47.279Z,99.99
2017-11-04T04:08:47.212Z,99.99
2017-11-04T04:09:47.140Z,99.99
2017-11-04T04:10:47.081Z,99.99
2017-11-04T04:11:47.020Z,99.99
2017-11-04T04:12:46.951Z,99.99
2017-11-04T04:13:46.892Z,99.99
2017-11-04T04:14:46.836Z,99.99
2017-11-04T04:15:46.776Z,99.99
2017-11-04T04:16:46.706Z,99.99
2017-11-04T04:17:46.643Z,99.99
2017-11-04T04:18:46.582Z,99.99
2017-11-04T04:19:46.514Z,99.99
2017-11-04T04:20:46.452Z,99.99
2017-11-04T04:21:46.394Z,99.99
2017-11-04T04:22:46.360Z,99.99
2017-11-04T04:23:46.275Z,99.99
2017-11-04T04:24:46.218Z,99.99
2017-11-04T04:25:46.173Z,99.99
2017-11-04T04:26:46.083Z,99.99
2017-11-04T04:27:46.025Z,99.99
2017-11-04T04:28:45.965Z,99.99
2017-11-04T04:29:45.893Z,99.99
2017-11-04T04:30:45.836Z,99.99
2017-11-04T04:31:45.777Z,99.99
2017-11-04T04:32:45.728Z,99.99
2017-11-04T04:33:45.662Z,99.99
2017-11-04T04:34:45.607Z,99.99
2017-11-04T04:35:45.552Z,99.99
2017-11-04T04:36:45.468Z,99.99
2017-11-04T04:37:45.399Z,99.99
2017-11-04T04:38:45.343Z,99.99
2017-11-04T04:39:45.280Z,99.99
2017-11-04T04:40:45.221Z,99.99
2017-11-04T04:41:45.162Z,99.99
2017-11-04T04:42:45.105Z,99.99
2017-11-04T04:43:45.050Z,99.99
2017-11-04T04:44:44.985Z,99.99
2017-11-04T04:45:44.954Z,99.99
2017-11-04T04:46:44.851Z,99.99
2017-11-04T04:47:44.783Z,99.99
2017-11-04T04:48:44.723Z,99.99
2017-11-04T04:49:44.663Z,99.99
2017-11-04T04:50:44.610Z,99.99
2017-11-04T04:51:44.548Z,99.99
2017-11-04T04:52:44.492Z,99.99
2017-11-04T04:53:44.439Z,99.99
2017-11-04T04:54:44.354Z,99.99
2017-11-04T04:55:44.295Z,99.99
2017-11-04T04:56:44.236Z,99.99
2017-11-04T04:57:44.169Z,99.99
2017-11-04T04:58:44.108Z,99.99
2017-11-04T04:59:44.056Z,99.99
2017-11-04T05:00:43.992Z,99.99
2017-11-04T05:01:43.934Z,99.99
2017-11-04T05:02:43.881Z,99.99
2017-11-04T05:03:43.805Z,99.99
2017-11-04T05:04:43.745Z,99.99
2017-11-04T05:05:43.674Z,99.99
2017-11-04T05:06:43.637Z,99.99
2017-11-04T05:07:43.554Z,99.99
2017-11-04T05:08:43.497Z,99.99
2017-11-04T05:09:43.436Z,99.99
2017-11-04T05:10:43.379Z,99.99
2017-11-04T05:11:43.326Z,99.99
2017-11-04T05:12:43.273Z,99.99
2017-11-04T05:13:43.190Z,99.99
2017-11-04T05:14:43.129Z,99.99
2017-11-04T05:15:43.067Z,99.99
2017-11-04T05:16:43.000Z,99.99
2017-11-04T05:17:42.940Z,99.99
2017-11-04T05:18:42.890Z,99.99
2017-11-04T05:19:42.823Z,99.99
2017-11-04T05:20:42.766Z,99.99
2017-11-04T05:21:42.711Z,99.99
2017-11-04T05:22:42.658Z,99.99
2017-11-04T05:23:42.584Z,99.99
2017-11-04T05:24:42.518Z,99.99
2017-11-04T05:25:42.447Z,99.99
2017-11-04T05:26:42.386Z,99.99
2017-11-04T05:27:42.329Z,99.99
2017-11-04T05:28:42.271Z,99.99
2017-11-04T05:29:42.211Z,99.99
2017-11-04T05:30:42.156Z,99.99
2017-11-04T05:31:42.100Z,99.99
2017-11-04T05:32:42.023Z,99.99
2017-11-04T05:33:41.960Z,99.99
2017-11-04T05:34:41.894Z,99.99
2017-11-04T05:35:41.833Z,99.99
2017-11-04T05:36:41.781Z,99.99
2017-11-04T05:37:41.735Z,99.99
2017-11-04T05:38:41.654Z,99.99
2017-11-04T05:39:41.591Z,99.99
2017-11-04T05:40:41.543Z,99.99
2017-11-04T05:41:41.461Z,99.99
2017-11-04T05:42:41.415Z,99.99
2017-11-04T05:43:41.345Z,99.99
2017-11-04T05:44:41.284Z,99.99
2017-11-04T05:45:41.227Z,99.99
2017-11-04T05:46:41.159Z,99.99
2017-11-04T05:47:41.099Z,99.99
2017-11-04T05:48:41.047Z,99.99
2017-11-04T05:49:40.979Z,99.99
2017-11-04T05:50:40.932Z,99.99
2017-11-04T05:51:40.853Z,99.99
2017-11-04T05:52:40.791Z,99.99
2017-11-04T05:53:40.723Z,99.99
2017-11-04T05:54:40.664Z,99.99
2017-11-04T05:55:40.609Z,99.99
2017-11-04T05:56:40.545Z,99.99
2017-11-04T05:57:40.485Z,99.99
2017-11-04T05:58:40.456Z,99.99
2017-11-04T05:59:40.350Z,99.99
2017-11-04T06:00:40.296Z,99.99
2017-11-04T06:01:40.239Z,99.99
2017-11-04T06:02:40.164Z,99.99
2017-11-04T06:03:40.106Z,99.99
2017-11-04T06:04:40.049Z,99.99
2017-11-04T06:05:39.987Z,99.99
2017-11-04T06:06:39.929Z,99.99
2017-11-04T06:07:39.856Z,99.99
2017-11-04T06:08:39.817Z,99.99
2017-11-04T06:09:39.740Z,99.99
2017-11-04T06:10:39.668Z,99.99
2017-11-04T06:11:39.639Z,99.99
2017-11-04T06:12:39.550Z,99.99
2017-11-04T06:13:39.497Z,99.99
2017-11-04T06:14:39.429Z,99.99
2017-11-04T06:15:39.370Z,99.99
2017-11-04T06:16:39.314Z,99.99
2017-11-04T06:17:39.260Z,99.99
2017-11-04T06:18:39.183Z,99.99
2017-11-04T06:19:39.118Z,99.99
2017-11-04T06:20:39.123Z,99.99
2017-11-04T06:21:38.990Z,99.99
2017-11-04T06:22:38.930Z,99.99
2017-11-04T06:23:38.883Z,99.99
2017-11-04T06:24:38.816Z,99.99
2017-11-04T06:25:38.757Z,99.99
2017-11-04T06:26:38.706Z,99.99
2017-11-04T06:27:38.621Z,99.99
2017-11-04T06:28:38.571Z,99.99
2017-11-04T06:29:38.502Z,99.99
2017-11-04T06:30:38.434Z,99.99
2017-11-04T06:31:38.375Z,99.99
2017-11-04T06:32:38.318Z,99.99
2017-11-04T06:33:38.257Z,99.99
2017-11-04T06:34:38.203Z,99.99
2017-11-04T06:35:38.145Z,99.99
2017-11-04T06:36:38.068Z,99.99
2017-11-04T06:37:38.006Z,99.99
2017-11-04T06:38:37.940Z,99.99
2017-11-04T06:39:37.878Z,99.99
2017-11-04T06:40:37.827Z,99.99
2017-11-04T06:41:37.758Z,99.99
2017-11-04T06:42:37.703Z,99.99
2017-11-04T06:43:37.645Z,99.99
2017-11-04T06:44:37.589Z,99.99
2017-11-04T06:45:37.512Z,99.99
2017-11-04T06:46:37.452Z,99.99
2017-11-04T06:47:37.396Z,99.99
2017-11-04T06:48:37.324Z,99.99
2017-11-04T06:49:37.262Z,99.99
2017-11-04T06:50:37.207Z,99.99
2017-11-04T06:51:37.144Z,99.99
2017-11-04T06:52:37.087Z,99.99
2017-11-04T06:53:37.034Z,99.99
2017-11-04T06:54:36.978Z,99.99
2017-11-04T06:55:36.898Z,99.73
2017-11-04T06:56:36.839Z,99.92
2017-11-04T06:57:36.771Z,99.99
2017-11-04T06:58:36.712Z,99.99
2017-11-04T06:59:36.652Z,99.92
2017-11-04T07:00:36.599Z,99.73
2017-11-04T07:01:36.539Z,99.54
2017-11-04T07:02:36.480Z,99.40
2017-11-04T07:03:36.433Z,98.83
2017-11-04T07:04:36.351Z,99.02
2017-11-04T07:05:36.286Z,99.21
2017-11-04T07:06:36.239Z,98.36
2017-11-04T07:07:36.161Z,97.78
2017-11-04T07:08:36.126Z,97.78
2017-11-04T07:09:36.041Z,97.97
2017-11-04T07:10:35.979Z,97.69
2017-11-04T07:11:35.921Z,97.88
2017-11-04T07:12:35.875Z,97.69
2017-11-04T07:13:35.808Z,98.07
2017-11-04T07:14:35.759Z,97.50
2017-11-04T07:15:35.675Z,97.31
2017-11-04T07:16:35.618Z,97.78
2017-11-04T07:17:35.555Z,96.93
2017-11-04T07:18:35.487Z,96.84
2017-11-04T07:19:35.427Z,97.50
2017-11-04T07:20:35.370Z,98.07
2017-11-04T07:21:35.315Z,97.88
2017-11-04T07:22:35.253Z,97.50
2017-11-04T07:23:35.204Z,97.50
2017-11-04T07:24:35.142Z,97.88
2017-11-04T07:25:35.088Z,97.69
2017-11-04T07:26:35.008Z,97.88
2017-11-04T07:27:34.948Z,97.60
2017-11-04T07:28:34.888Z,97.60
2017-11-04T07:29:34.820Z,97.41
2017-11-04T07:30:34.767Z,98.07
2017-11-04T07:31:34.703Z,97.31
2017-11-04T07:32:34.646Z,97.12
2017-11-04T07:33:34.588Z,96.84
2017-11-04T07:34:34.532Z,96.69
2017-11-04T07:35:34.479Z,96.22
2017-11-04T07:36:34.421Z,96.12
2017-11-04T07:37:34.343Z,95.60
2017-11-04T07:38:34.293Z,94.79
2017-11-04T07:39:34.222Z,95.56
2017-11-04T07:40:34.165Z,95.27
2017-11-04T07:41:34.096Z,94.98
2017-11-04T07:42:34.064Z,95.17
2017-11-04T07:43:33.982Z,95.27
2017-11-04T07:44:33.922Z,95.56
2017-11-04T07:45:33.865Z,95.36
2017-11-04T07:46:33.802Z,94.08
2017-11-04T07:47:33.756Z,93.18
2017-11-04T07:48:33.679Z,90.03
2017-11-04T07:49:33.621Z,89.70
2017-11-04T07:50:33.559Z,88.03
2017-11-04T07:51:33.508Z,86.51
2017-11-04T07:52:33.451Z,83.97
2017-11-04T07:53:33.386Z,82.64
2017-11-04T07:54:33.323Z,81.68
2017-11-04T07:55:33.262Z,81.35
2017-11-04T07:56:33.205Z,80.87
2017-11-04T07:57:33.148Z,80.87
2017-11-04T07:58:33.093Z,80.53
2017-11-04T07:59:33.036Z,79.00
2017-11-04T08:00:32.979Z,77.23
2017-11-04T08:01:32.929Z,75.83
2017-11-04T08:02:32.869Z,74.69
2017-11-04T08:03:32.806Z,74.34
2017-11-04T08:04:32.780Z,73.61
2017-11-04T08:05:32.704Z,71.45
2017-11-04T08:06:32.636Z,68.90
2017-11-04T08:07:32.593Z,67.76
2017-11-04T08:08:32.540Z,67.18
2017-11-04T08:09:32.485Z,67.02
2017-11-04T08:10:32.438Z,65.78
2017-11-04T08:11:32.375Z,65.11
2017-11-04T08:12:32.309Z,64.92
2017-11-04T08:13:32.266Z,64.47
2017-11-04T08:14:32.212Z,63.89
2017-11-04T08:15:32.159Z,63.60
2017-11-04T08:16:32.106Z,63.26
2017-11-04T08:17:32.045Z,62.71
2017-11-04T08:18:31.995Z,60.60
2017-11-04T08:19:31.945Z,59.96
2017-11-04T08:20:31.888Z,58.62
2017-11-04T08:21:31.836Z,60.22
2017-11-04T08:22:31.783Z,60.93
2017-11-04T08:23:31.749Z,62.07
2017-11-04T08:24:31.679Z,62.39
2017-11-04T08:25:31.622Z,61.69
2017-11-04T08:26:31.567Z,61.53
2017-11-04T08:27:31.514Z,61.79
2017-11-04T08:28:31.460Z,61.31
2017-11-04T08:29:31.407Z,61.98
2017-11-04T08:30:31.363Z,61.50
2017-11-04T08:31:31.313Z,61.88
2017-11-04T08:32:31.258Z,61.79
2017-11-04T08:33:31.207Z,61.98
2017-11-04T08:34:31.180Z,63.10
2017-11-04T08:35:31.105Z,63.29
2017-11-04T08:36:31.047Z,63.22
2017-11-04T08:37:30.994Z,61.69
2017-11-04T08:38:30.963Z,61.88
2017-11-04T08:39:30.908Z,61.88
2017-11-04T08:40:30.853Z,61.05
2017-11-04T08:41:30.784Z,61.05
2017-11-04T08:42:30.745Z,61.50
2017-11-04T08:43:30.691Z,61.50
2017-11-04T08:44:30.636Z,61.24
2017-11-04T08:45:30.580Z,61.18
2017-11-04T08:46:30.546Z,60.05
2017-11-04T08:47:30.472Z,58.52
2017-11-04T08:48:30.422Z,58.23
2017-11-04T08:49:30.365Z,57.78
2017-11-04T08:50:30.312Z,57.04
2017-11-04T08:51:30.261Z,56.46
2017-11-04T08:52:30.213Z,55.69
2017-11-04T08:53:30.154Z,55.53
2017-11-04T08:54:30.109Z,54.38
2017-11-04T08:55:30.047Z,54.83
2017-11-04T08:56:30.004Z,55.47
2017-11-04T08:57:29.957Z,56.44
2017-11-04T08:58:29.901Z,57.08
2017-11-04T08:59:29.849Z,57.56
2017-11-04T09:00:29.797Z,57.11
2017-11-04T09:01:29.747Z,55.51
2017-11-04T09:02:29.714Z,55.41
2017-11-04T09:03:29.660Z,55.29
2017-11-04T09:04:29.604Z,56.15
2017-11-04T09:05:29.549Z,56.08
2017-11-04T09:06:29.491Z,55.29
2017-11-04T09:07:29.451Z,56.05
2017-11-04T09:08:29.397Z,55.96
2017-11-04T09:09:29.340Z,57.43
2017-11-04T09:10:29.284Z,58.39
2017-11-04T09:11:29.233Z,58.62
2017-11-04T09:12:29.188Z,58.11
2017-11-04T09:13:29.126Z,57.72
2017-11-04T09:14:29.078Z,57.56
2017-11-04T09:15:29.025Z,57.46
2017-11-04T09:16:28.978Z,58.11
2017-11-04T09:17:28.928Z,58.17
2017-11-04T09:18:28.902Z,59.04
2017-11-04T09:19:28.847Z,59.13
2017-11-04T09:20:28.792Z,59.97
2017-11-04T09:21:28.737Z,60.73
2017-11-04T09:22:28.684Z,60.54
2017-11-04T09:23:28.635Z,60.64
2017-11-04T09:24:28.575Z,61.02
2017-11-04T09:25:28.519Z,60.54
2017-11-04T09:26:28.465Z,61.02
2017-11-04T09:27:28.411Z,61.66
2017-11-04T09:28:28.358Z,62.36
2017-11-04T09:29:28.304Z,61.79
2017-11-04T09:30:28.255Z,60.93
2017-11-04T09:31:28.198Z,61.11
2017-11-04T09:32:28.146Z,60.93
2017-11-04T09:33:28.095Z,61.85
2017-11-04T09:34:28.046Z,62.33
2017-11-04T09:35:27.986Z,62.59
2017-11-04T09:36:27.932Z,63.89
2017-11-04T09:37:27.907Z,66.06
2017-11-04T09:38:27.821Z,67.11
2017-11-04T09:39:27.772Z,66.92
2017-11-04T09:40:27.721Z,67.49
2017-11-04T09:41:27.661Z,68.70
2017-11-04T09:42:27.607Z,69.18
2017-11-04T09:43:27.562Z,69.50
2017-11-04T09:44:27.508Z,68.93
2017-11-04T09:45:27.476Z,68.74
2017-11-04T09:46:27.398Z,69.79
2017-11-04T09:47:27.345Z,69.89
2017-11-04T09:48:27.290Z,69.21
2017-11-04T09:49:27.235Z,69.21
2017-11-04T09:50:27.193Z,68.84
2017-11-04T09:51:27.166Z,68.99
2017-11-04T09:52:27.074Z,69.56
2017-11-04T09:53:27.016Z,70.14
2017-11-04T09:54:26.977Z,69.85
2017-11-04T09:55:26.907Z,70.52
2017-11-04T09:56:26.856Z,70.67
2017-11-04T09:57:26.796Z,71.47
2017-11-04T09:58:26.744Z,70.71
2017-11-04T09:59:26.689Z,70.52
2017-11-04T10:00:26.634Z,70.61
2017-11-04T10:01:26.572Z,70.48
2017-11-04T10:02:26.524Z,71.06
2017-11-04T10:03:26.467Z,71.53
2017-11-04T10:04:26.417Z,72.39
2017-11-04T10:05:26.357Z,72.20
2017-11-04T10:06:26.299Z,72.17
2017-11-04T10:07:26.237Z,73.50
2017-11-04T10:08:26.185Z,74.27
2017-11-04T10:09:26.130Z,74.93
2017-11-04T10:10:26.071Z,74.74
2017-11-04T10:11:26.030Z,74.74
2017-11-04T10:12:25.977Z,74.65
2017-11-04T10:13:25.921Z,74.84
2017-11-04T10:14:25.851Z,74.17
2017-11-04T10:15:25.815Z,74.08
2017-11-04T10:16:25.739Z,74.08
2017-11-04T10:17:25.692Z,74.17
2017-11-04T10:18:25.628Z,74.55
2017-11-04T10:19:25.575Z,74.55
2017-11-04T10:20:25.517Z,74.74
2017-11-04T10:21:25.468Z,74.17
2017-11-04T10:22:25.406Z,74.84
2017-11-04T10:23:25.347Z,74.55
2017-11-04T10:24:25.293Z,74.74
2017-11-04T10:25:25.238Z,74.93
2017-11-04T10:26:25.182Z,75.13
2017-11-04T10:27:25.128Z,75.03
2017-11-04T10:28:25.072Z,75.22
2017-11-04T10:29:25.017Z,75.51
2017-11-04T10:30:24.963Z,75.13
2017-11-04T10:31:24.908Z,75.60
2017-11-04T10:32:24.853Z,75.79
2017-11-04T10:33:24.799Z,76.81
2017-11-04T10:34:24.744Z,76.52
2017-11-04T10:35:24.689Z,77.28
2017-11-04T10:36:24.616Z,76.81
2017-11-04T10:37:24.557Z,76.90
2017-11-04T10:38:24.499Z,76.62
2017-11-04T10:39:24.450Z,76.65
2017-11-04T10:40:24.387Z,76.56
2017-11-04T10:41:24.334Z,76.75
2017-11-04T10:42:24.277Z,76.75
2017-11-04T10:43:24.248Z,75.98
2017-11-04T10:44:24.197Z,75.98
2017-11-04T10:45:24.095Z,76.84
2017-11-04T10:46:24.040Z,76.65
2017-11-04T10:47:24.011Z,76.75
2017-11-04T10:48:23.944Z,77.13
2017-11-04T10:49:23.872Z,76.65
2017-11-04T10:50:23.817Z,76.65
2017-11-04T10:51:23.760Z,76.84
2017-11-04T10:52:23.705Z,76.65
2017-11-04T10:53:23.648Z,77.19
2017-11-04T10:54:23.590Z,77.38
2017-11-04T10:55:23.537Z,77.76
2017-11-04T10:56:23.482Z,77.86
2017-11-04T10:57:23.425Z,78.05
2017-11-04T10:58:23.375Z,77.61
2017-11-04T10:59:23.315Z,77.28
2017-11-04T11:00:23.248Z,77.28
2017-11-04T11:01:23.202Z,78.52
2017-11-04T11:02:23.135Z,79.48
2017-11-04T11:03:23.093Z,79.63
2017-11-04T11:04:23.041Z,80.30
2017-11-04T11:05:22.985Z,80.68
2017-11-04T11:06:22.908Z,80.24
2017-11-04T11:07:22.852Z,79.48
2017-11-04T11:08:22.796Z,80.20
2017-11-04T11:09:22.737Z,79.96
2017-11-04T11:10:22.678Z,79.86
2017-11-04T11:11:22.624Z,80.05
2017-11-04T11:12:22.574Z,80.05
2017-11-04T11:13:22.510Z,80.05
2017-11-04T11:14:22.447Z,79.86
2017-11-04T11:15:22.439Z,79.57
2017-11-04T11:16:22.332Z,79.28
2017-11-04T11:17:22.274Z,79.48
2017-11-04T11:18:22.233Z,79.10
2017-11-04T11:19:22.166Z,79.57
2017-11-04T11:20:22.108Z,79.48
2017-11-04T11:21:22.050Z,79.19
2017-11-04T11:22:21.999Z,79.48
2017-11-04T11:23:21.941Z,79.48
2017-11-04T11:24:21.885Z,79.77
2017-11-04T11:25:21.827Z,79.67
2017-11-04T11:26:21.770Z,79.86
2017-11-04T11:27:21.716Z,80.33
2017-11-04T11:28:21.662Z,79.96
2017-11-04T11:29:21.607Z,79.57
2017-11-04T11:30:21.551Z,79.77
2017-11-04T11:31:21.479Z,79.77
2017-11-04T11:32:21.425Z,80.24
2017-11-04T11:33:21.366Z,80.24
2017-11-04T11:34:21.313Z,80.24
2017-11-04T11:35:21.245Z,80.15
2017-11-04T11:36:21.195Z,79.86
2017-11-04T11:37:21.135Z,80.33
2017-11-04T11:38:21.085Z,80.33
2017-11-04T11:39:21.018Z,80.24
2017-11-04T11:40:20.963Z,80.43
2017-11-04T11:41:20.903Z,80.24
2017-11-04T11:42:20.843Z,80.43
2017-11-04T11:43:20.793Z,80.15
2017-11-04T11:44:20.733Z,81.10
2017-11-04T11:45:20.676Z,80.43
2017-11-04T11:46:20.621Z,80.15
2017-11-04T11:47:20.565Z,81.01
2017-11-04T11:48:20.506Z,80.81
2017-11-04T11:49:20.450Z,80.81
2017-11-04T11:50:20.394Z,81.01
2017-11-04T11:51:20.340Z,81.06
2017-11-04T11:52:20.288Z,81.29
2017-11-04T11:53:20.231Z,81.54
2017-11-04T11:54:20.175Z,81.48
2017-11-04T11:55:20.110Z,81.48
2017-11-04T11:56:20.046Z,81.29
2017-11-04T11:57:19.987Z,80.72
2017-11-04T11:58:19.930Z,81.58
2017-11-04T11:59:19.873Z,81.38
2017-11-04T12:00:19.816Z,81.38
2017-11-04T12:01:19.756Z,81.77
2017-11-04T12:02:19.693Z,81.67
2017-11-04T12:03:19.641Z,81.48
2017-11-04T12:04:19.595Z,81.67
2017-11-04T12:05:19.551Z,81.48
2017-11-04T12:06:19.465Z,81.48
2017-11-04T12:07:19.412Z,81.01
2017-11-04T12:08:19.353Z,81.29
2017-11-04T12:09:19.296Z,81.96
2017-11-04T12:10:19.246Z,82.15
2017-11-04T12:11:19.184Z,82.11
2017-11-04T12:12:19.129Z,82.01
2017-11-04T12:13:19.075Z,82.15
2017-11-04T12:14:19.032Z,82.15
2017-11-04T12:15:18.975Z,81.96
2017-11-04T12:16:18.909Z,81.48
2017-11-04T12:17:18.855Z,81.86
2017-11-04T12:18:18.778Z,82.15
2017-11-04T12:19:18.729Z,81.96
2017-11-04T12:20:18.665Z,81.48
2017-11-04T12:21:18.605Z,81.86
2017-11-04T12:22:18.546Z,81.77
2017-11-04T12:23:18.495Z,82.06
2017-11-04T12:24:18.458Z,81.96
2017-11-04T12:25:18.396Z,81.29
2017-11-04T12:26:18.314Z,81.67
2017-11-04T12:27:18.376Z,82.15
2017-11-04T12:28:18.206Z,82.06
2017-11-04T12:29:18.150Z,81.67
2017-11-04T12:30:18.084Z,82.15
2017-11-04T12:31:18.029Z,82.15
2017-11-04T12:32:17.972Z,81.58
2017-11-04T12:33:17.924Z,81.38
2017-11-04T12:34:17.862Z,81.38
2017-11-04T12:35:17.820Z,81.38
2017-11-04T12:36:17.751Z,81.24
2017-11-04T12:37:17.697Z,81.04
2017-11-04T12:38:17.623Z,81.14
2017-11-04T12:39:17.570Z,81.04
2017-11-04T12:40:17.518Z,80.76
2017-11-04T12:41:17.456Z,81.48
2017-11-04T12:42:17.395Z,81.10
2017-11-04T12:43:17.351Z,81.58
2017-11-04T12:44:17.317Z,81.58
2017-11-04T12:45:17.230Z,81.77
2017-11-04T12:46:17.158Z,81.58
2017-11-04T12:47:17.102Z,81.20
2017-11-04T12:48:17.046Z,81.58
2017-11-04T12:49:16.992Z,81.96
2017-11-04T12:50:16.933Z,82.15
2017-11-04T12:51:16.876Z,81.96